createdAt,value
2023-02-14T00:00:02.245Z,102.76
2023-02-14T00:15:02.114Z,102.76
2023-02-14T00:30:02.512Z,102.76
2023-02-14T00:45:02.928Z,102.76
2023-02-14T01:00:02.193Z,102.76
2023-02-14T01:15:02.285Z,102.76
2023-02-14T01:30:02.365Z,102.76
2023-02-14T01:45:02.422Z,102.76
2023-02-14T02:00:02.961Z,102.76
2023-02-14T02:15:01.440Z,102.76
2023-02-14T02:30:01.888Z,102.76
2023-02-14T02:45:02.323Z,102.76
2023-02-14T03:00:01.481Z,102.76
2023-02-14T03:15:01.900Z,102.76
2023-02-14T03:30:02.273Z,102.76
2023-02-14T03:45:02.515Z,102.76
2023-02-14T04:00:02.957Z,102.76
2023-02-14T04:15:02.168Z,102.76
2023-02-14T04:30:02.359Z,105.96
2023-02-14T04:45:04.172Z,106.12
2023-02-14T05:00:02.586Z,105.8
2023-02-14T05:15:02.645Z,105.51
2023-02-14T05:30:01.618Z,105.8
2023-02-14T05:45:01.856Z,107.29
2023-02-14T06:00:03.065Z,107.13
2023-02-14T06:15:01.709Z,107.9
2023-02-14T06:30:02.209Z,106.24
2023-02-14T06:45:01.570Z,106.73
2023-02-14T07:00:01.760Z,106.73
2023-02-14T07:15:01.873Z,106.16
2023-02-14T07:30:02.165Z,105.63
2023-02-14T07:45:09.558Z,103.8
2023-02-14T08:00:02.419Z,96.33
2023-02-14T08:15:01.533Z,85.32
2023-02-14T08:30:01.974Z,81.63
2023-02-14T08:45:02.231Z,81.63
2023-02-14T09:00:02.717Z,81.63
2023-02-14T09:15:01.497Z,81.63
2023-02-14T09:30:02.087Z,81.63
2023-02-14T09:45:02.964Z,81.63
2023-02-14T10:00:01.616Z,81.63
2023-02-14T10:15:02.341Z,81.63
2023-02-14T10:30:02.706Z,36.59
2023-02-14T10:45:02.198Z,36.59
2023-02-14T11:00:02.738Z,31.29
2023-02-14T11:15:01.944Z,32.22
2023-02-14T11:30:02.502Z,28.62
2023-02-14T11:45:01.485Z,27.89
2023-02-14T12:00:02.841Z,25.86
2023-02-14T12:15:01.902Z,23.35
2023-02-14T12:30:03.517Z,24.24
2023-02-14T12:45:02.481Z,24.24
2023-02-14T13:00:02.879Z,24.24
2023-02-14T13:15:01.444Z,16.88
2023-02-14T13:30:02.322Z,17.36
2023-02-14T13:45:02.076Z,15.99
2023-02-14T14:00:01.389Z,16.88
2023-02-14T14:15:02.240Z,16.96
2023-02-14T14:30:02.643Z,16.96
2023-02-14T14:45:03.087Z,16.96
2023-02-14T15:00:02.973Z,24.16
2023-02-14T15:15:01.704Z,37.52
2023-02-14T15:30:01.847Z,45.37
2023-02-14T15:45:02.132Z,46.34
2023-02-14T16:00:01.891Z,60.51
2023-02-14T16:15:02.233Z,66.42
2023-02-14T16:30:01.636Z,70.95
2023-02-14T16:45:02.213Z,73.54
2023-02-14T17:00:03.167Z,78.56
2023-02-14T17:15:02.187Z,80.42
2023-02-14T17:30:03.322Z,83.45
2023-02-14T17:45:02.130Z,83.41
2023-02-14T18:00:02.670Z,83.41
2023-02-14T18:15:03.184Z,83.41
2023-02-14T18:30:01.833Z,83.41
2023-02-14T18:45:02.116Z,83.41
2023-02-14T19:00:02.692Z,83.41
2023-02-14T19:15:01.561Z,83.41
2023-02-14T19:30:01.980Z,83.41
2023-02-14T19:45:02.245Z,83.41
2023-02-14T20:00:01.820Z,96.93
2023-02-14T20:15:02.845Z,96.93
2023-02-14T20:30:01.678Z,96.93
2023-02-14T20:45:01.856Z,96.93
2023-02-14T21:00:02.323Z,96.93
2023-02-14T21:15:02.532Z,96.93
2023-02-14T21:30:03.190Z,96.93
2023-02-14T21:45:01.555Z,96.93
2023-02-14T22:00:02.015Z,96.93
2023-02-14T22:15:02.035Z,96.93
2023-02-14T22:30:02.349Z,96.93
2023-02-14T22:45:02.846Z,96.93
2023-02-14T23:00:02.207Z,96.93
2023-02-14T23:15:01.932Z,96.93
2023-02-14T23:30:02.510Z,96.93
2023-02-14T23:45:01.877Z,96.93
